createdAt,value
2023-03-16T00:03:07.014Z,86.61
2023-03-16T00:07:11.766Z,86.31
2023-03-16T00:11:14.398Z,85.62
2023-03-16T00:15:17.185Z,84.80
2023-03-16T00:19:22.917Z,85.33
2023-03-16T00:23:28.058Z,84.94
2023-03-16T00:27:30.712Z,85.05
2023-03-16T00:31:33.936Z,85.11
2023-03-16T00:35:38.037Z,84.87
2023-03-16T00:39:41.894Z,85.18
2023-03-16T00:43:45.546Z,85.28
2023-03-16T00:47:48.220Z,85.10
2023-03-16T00:51:52.209Z,85.11
2023-03-16T00:55:54.874Z,84.56
2023-03-16T00:59:57.534Z,84.74
2023-03-16T01:04:01.614Z,84.38
2023-03-16T01:08:05.717Z,85.25
2023-03-16T01:12:10.707Z,85.40
2023-03-16T01:16:13.428Z,85.41
2023-03-16T01:20:19.320Z,86.37
2023-03-16T01:24:24.288Z,87.37
2023-03-16T01:28:29.575Z,87.11
2023-03-16T01:32:32.289Z,87.42
2023-03-16T01:36:34.951Z,87.60
2023-03-16T01:40:39.020Z,87.51
2023-03-16T01:44:54.382Z,88.29
2023-03-16T01:49:06.258Z,88.61
2023-03-16T01:53:09.452Z,88.52
2023-03-16T01:57:16.174Z,88.82
2023-03-16T02:01:19.108Z,89.95
2023-03-16T02:05:26.364Z,89.84
2023-03-16T02:09:28.927Z,90.23
2023-03-16T02:13:36.706Z,90.54
2023-03-16T02:17:39.454Z,91.06
2023-03-16T02:21:54.435Z,91.10
2023-03-16T02:26:05.064Z,91.13
2023-03-16T02:30:14.069Z,91.74
2023-03-16T02:34:18.150Z,91.82
2023-03-16T02:38:20.903Z,92.27
2023-03-16T02:42:27.037Z,92.17
2023-03-16T02:46:35.881Z,92.17
2023-03-16T02:50:46.895Z,91.89
2023-03-16T02:54:49.707Z,92.03
2023-03-16T02:58:52.598Z,91.71
2023-03-16T03:02:56.734Z,92.02
2023-03-16T03:07:04.654Z,92.23
2023-03-16T03:11:07.695Z,92.80
2023-03-16T03:15:12.025Z,92.76
2023-03-16T03:19:16.002Z,92.77
2023-03-16T03:23:18.721Z,92.87
2023-03-16T03:27:22.606Z,93.20
2023-03-16T03:31:25.340Z,93.10
2023-03-16T03:35:29.453Z,93.51
2023-03-16T03:39:32.165Z,93.01
2023-03-16T03:43:35.126Z,93.20
2023-03-16T03:47:37.782Z,93.06
2023-03-16T03:51:42.133Z,93.41
2023-03-16T03:55:45.163Z,93.12
2023-03-16T03:59:47.876Z,93.16
2023-03-16T04:03:50.614Z,93.25
2023-03-16T04:07:57.642Z,93.28
2023-03-16T04:12:00.658Z,93.69
2023-03-16T04:16:03.702Z,93.37
2023-03-16T04:20:11.528Z,93.45
2023-03-16T04:24:15.727Z,93.40
2023-03-16T04:28:18.446Z,93.77
2023-03-16T04:32:21.167Z,93.88
2023-03-16T04:36:25.098Z,93.77
2023-03-16T04:40:30.451Z,93.61
2023-03-16T04:44:33.509Z,93.95
2023-03-16T04:48:36.956Z,93.80
2023-03-16T04:52:39.971Z,93.40
2023-03-16T04:56:44.146Z,93.48
2023-03-16T05:00:48.274Z,93.80
2023-03-16T05:04:51.411Z,93.42
2023-03-16T05:08:54.293Z,93.80
2023-03-16T05:12:58.541Z,94.17
2023-03-16T05:17:13.895Z,93.86
2023-03-16T05:21:16.582Z,93.94
2023-03-16T05:25:20.657Z,94.62
2023-03-16T05:29:25.572Z,95.36
2023-03-16T05:33:28.208Z,96.32
2023-03-16T05:37:31.135Z,96.58
2023-03-16T05:41:34.195Z,96.79
2023-03-16T05:45:38.195Z,96.54
2023-03-16T05:49:40.846Z,96.08
2023-03-16T05:53:46.773Z,95.51
2023-03-16T05:57:49.417Z,95.66
2023-03-16T06:01:53.421Z,94.88
2023-03-16T06:05:56.091Z,94.95
2023-03-16T06:09:58.794Z,94.86
2023-03-16T06:14:03.182Z,94.72
2023-03-16T06:18:07.337Z,94.89
2023-03-16T06:22:10.289Z,94.63
2023-03-16T06:26:13.307Z,94.20
2023-03-16T06:30:16.851Z,94.02
2023-03-16T06:34:20.878Z,94.36
2023-03-16T06:38:23.516Z,93.81
2023-03-16T06:42:26.378Z,94.12
2023-03-16T06:46:29.154Z,93.30
2023-03-16T06:50:33.162Z,93.02
2023-03-16T06:54:37.710Z,93.43
2023-03-16T06:58:41.166Z,93.12
2023-03-16T07:02:43.936Z,92.82
2023-03-16T07:06:48.023Z,93.18
2023-03-16T07:10:51.552Z,92.90
2023-03-16T07:14:54.372Z,92.74
2023-03-16T07:18:57.214Z,92.67
2023-03-16T07:23:01.568Z,92.61
2023-03-16T07:27:04.341Z,92.27
2023-03-16T07:31:08.147Z,91.85
2023-03-16T07:35:12.440Z,90.75
2023-03-16T07:39:18.121Z,90.39
2023-03-16T07:43:20.750Z,90.25
2023-03-16T07:47:26.510Z,89.38
2023-03-16T07:51:29.405Z,88.69
2023-03-16T07:55:36.479Z,87.99
2023-03-16T07:59:39.462Z,87.96
2023-03-16T08:03:42.251Z,88.00
2023-03-16T08:07:44.974Z,87.34
2023-03-16T08:11:49.010Z,87.44
2023-03-16T08:15:58.339Z,88.01
2023-03-16T08:20:01.216Z,88.73
2023-03-16T08:24:03.945Z,88.22
2023-03-16T08:28:09.411Z,87.99
2023-03-16T08:32:12.493Z,88.57
2023-03-16T08:36:21.047Z,88.48
2023-03-16T08:40:25.460Z,89.00
2023-03-16T08:44:29.491Z,88.73
2023-03-16T08:48:33.359Z,88.26
2023-03-16T08:52:37.369Z,88.04
2023-03-16T08:56:40.061Z,88.63
2023-03-16T09:00:46.828Z,88.35
2023-03-16T09:04:50.702Z,88.26
2023-03-16T09:08:54.015Z,89.24
2023-03-16T09:12:56.790Z,88.01
2023-03-16T09:17:00.849Z,88.34
2023-03-16T09:21:06.532Z,87.94
2023-03-16T09:25:11.060Z,87.77
2023-03-16T09:29:15.087Z,87.21
2023-03-16T09:33:19.020Z,86.97
2023-03-16T09:37:23.505Z,86.60
2023-03-16T09:41:42.034Z,86.26
2023-03-16T09:45:53.561Z,85.78
2023-03-16T09:50:00.211Z,84.99
2023-03-16T09:54:05.050Z,85.18
2023-03-16T09:58:17.369Z,84.57
2023-03-16T10:02:49.049Z,82.11
2023-03-16T10:07:03.046Z,81.52
2023-03-16T10:11:31.662Z,82.10
2023-03-16T10:15:39.029Z,82.53
2023-03-16T10:19:46.169Z,81.55
2023-03-16T10:23:50.408Z,81.45
2023-03-16T10:27:53.697Z,79.42
2023-03-16T10:32:03.223Z,78.73
2023-03-16T10:36:14.264Z,78.62
2023-03-16T10:40:20.377Z,78.24
2023-03-16T10:44:25.538Z,75.59
2023-03-16T10:48:28.362Z,72.61
2023-03-16T10:52:35.819Z,72.31
2023-03-16T10:56:40.367Z,69.26
2023-03-16T11:00:46.042Z,67.77
2023-03-16T11:04:49.563Z,68.78
2023-03-16T11:08:53.933Z,66.40
2023-03-16T11:13:03.011Z,66.91
2023-03-16T11:17:12.354Z,67.44
2023-03-16T11:21:19.154Z,67.86
2023-03-16T11:25:28.632Z,66.47
2023-03-16T11:29:47.927Z,63.86
2023-03-16T11:33:51.083Z,63.80
2023-03-16T11:38:09.390Z,61.12
2023-03-16T11:42:28.448Z,60.92
2023-03-16T11:46:39.560Z,59.55
2023-03-16T11:50:56.327Z,57.33
2023-03-16T11:55:09.127Z,56.37
2023-03-16T11:59:30.927Z,56.05
2023-03-16T12:04:03.278Z,56.05
2023-03-16T12:08:20.964Z,52.24
2023-03-16T12:12:34.305Z,53.65
2023-03-16T12:16:49.561Z,51.37
2023-03-16T12:21:00.134Z,51.13
2023-03-16T12:25:05.590Z,51.95
2023-03-16T12:29:17.427Z,50.16
2023-03-16T12:33:31.395Z,48.52
2023-03-16T12:37:42.615Z,48.37
2023-03-16T12:42:01.094Z,47.31
2023-03-16T12:46:08.160Z,46.78
2023-03-16T12:50:15.325Z,45.15
2023-03-16T12:54:24.289Z,44.30
2023-03-16T12:58:28.176Z,42.55
2023-03-16T13:02:33.389Z,42.21
2023-03-16T13:06:37.561Z,40.65
2023-03-16T13:10:42.141Z,43.14
2023-03-16T13:14:45.819Z,42.99
2023-03-16T13:18:48.806Z,42.59
2023-03-16T13:23:08.147Z,40.89
2023-03-16T13:27:23.243Z,42.35
2023-03-16T13:31:39.080Z,42.09
2023-03-16T13:35:42.285Z,41.34
2023-03-16T13:39:53.920Z,40.06
2023-03-16T13:43:57.949Z,40.82
2023-03-16T13:48:02.279Z,41.36
2023-03-16T13:52:06.006Z,41.34
2023-03-16T13:56:08.873Z,40.77
2023-03-16T14:00:20.306Z,41.60
2023-03-16T14:04:24.708Z,39.97
2023-03-16T14:08:28.037Z,39.87
2023-03-16T14:12:31.065Z,40.00
2023-03-16T14:16:36.538Z,37.57
2023-03-16T14:20:41.896Z,35.65
2023-03-16T14:24:47.945Z,36.34
2023-03-16T14:29:02.771Z,37.59
2023-03-16T14:33:24.899Z,37.65
2023-03-16T14:37:36.692Z,38.20
2023-03-16T14:41:39.988Z,38.64
2023-03-16T14:45:42.808Z,37.29
2023-03-16T14:49:46.812Z,37.53
2023-03-16T14:53:49.479Z,37.33
2023-03-16T14:57:53.167Z,37.98
2023-03-16T15:01:56.653Z,37.09
2023-03-16T15:06:01.875Z,37.45
2023-03-16T15:10:09.905Z,37.91
2023-03-16T15:14:35.392Z,39.49
2023-03-16T15:18:39.267Z,42.29
2023-03-16T15:22:44.621Z,41.46
2023-03-16T15:26:47.285Z,42.13
2023-03-16T15:30:51.873Z,39.87
2023-03-16T15:34:54.645Z,39.91
2023-03-16T15:38:58.661Z,39.70
2023-03-16T15:43:01.781Z,40.35
2023-03-16T15:47:04.667Z,40.07
2023-03-16T15:51:10.135Z,40.80
2023-03-16T15:55:20.462Z,40.72
2023-03-16T15:59:24.381Z,40.19
2023-03-16T16:03:33.773Z,42.21
2023-03-16T16:07:36.439Z,42.45
2023-03-16T16:11:42.210Z,43.48
2023-03-16T16:15:45.469Z,43.58
2023-03-16T16:19:52.065Z,43.51
2023-03-16T16:23:54.839Z,45.01
2023-03-16T16:27:58.878Z,44.59
2023-03-16T16:32:01.981Z,46.96
2023-03-16T16:36:14.460Z,47.73
2023-03-16T16:40:19.385Z,47.70
2023-03-16T16:44:25.657Z,47.59
2023-03-16T16:48:31.702Z,48.54
2023-03-16T16:52:34.414Z,49.25
2023-03-16T16:56:38.645Z,50.76
2023-03-16T17:00:44.522Z,51.88
2023-03-16T17:04:47.247Z,52.11
2023-03-16T17:08:50.935Z,52.62
2023-03-16T17:12:55.311Z,52.97
2023-03-16T17:17:04.857Z,53.28
2023-03-16T17:21:10.459Z,65.38
2023-03-16T17:25:14.304Z,57.81
2023-03-16T17:29:21.035Z,51.82
2023-03-16T17:33:27.026Z,52.21
2023-03-16T17:37:30.089Z,53.13
2023-03-16T17:41:33.249Z,53.40
2023-03-16T17:45:36.830Z,53.40
2023-03-16T17:49:41.838Z,58.39
2023-03-16T17:53:45.133Z,54.39
2023-03-16T17:57:50.147Z,53.88
2023-03-16T18:01:52.776Z,53.92
2023-03-16T18:05:56.785Z,53.59
2023-03-16T18:09:59.642Z,53.92
2023-03-16T18:14:03.978Z,53.51
2023-03-16T18:18:08.346Z,53.27
2023-03-16T18:22:19.352Z,53.19
2023-03-16T18:26:23.736Z,53.20
2023-03-16T18:30:28.092Z,53.56
2023-03-16T18:34:36.214Z,54.13
2023-03-16T18:38:43.541Z,54.71
2023-03-16T18:42:46.651Z,55.18
2023-03-16T18:46:50.791Z,55.88
2023-03-16T18:50:53.555Z,55.88
2023-03-16T18:54:58.754Z,56.40
2023-03-16T18:59:02.328Z,58.11
2023-03-16T19:03:06.828Z,56.97
2023-03-16T19:07:24.494Z,56.51
2023-03-16T19:11:29.806Z,56.66
2023-03-16T19:15:33.816Z,56.94
2023-03-16T19:19:36.589Z,57.55
2023-03-16T19:23:39.490Z,57.68
2023-03-16T19:27:43.608Z,57.64
2023-03-16T19:31:46.399Z,58.35
2023-03-16T19:35:52.105Z,58.75
2023-03-16T19:39:55.184Z,58.42
2023-03-16T19:44:04.797Z,58.27
2023-03-16T19:48:14.154Z,58.27
2023-03-16T19:52:16.832Z,58.53
2023-03-16T19:56:21.771Z,58.25
2023-03-16T20:00:27.130Z,58.20
2023-03-16T20:04:30.295Z,58.18
2023-03-16T20:08:32.968Z,58.49
2023-03-16T20:12:43.523Z,59.02
2023-03-16T20:16:48.788Z,58.78
2023-03-16T20:20:51.716Z,58.55
2023-03-16T20:24:54.864Z,58.49
2023-03-16T20:28:57.725Z,57.92
2023-03-16T20:33:01.793Z,57.69
2023-03-16T20:37:10.681Z,57.31
2023-03-16T20:41:16.956Z,57.70
2023-03-16T20:45:23.042Z,57.96
2023-03-16T20:49:32.853Z,57.96
2023-03-16T20:53:35.966Z,58.24
2023-03-16T20:57:40.155Z,57.93
2023-03-16T21:01:45.470Z,57.83
2023-03-16T21:05:50.108Z,58.35
2023-03-16T21:09:53.194Z,58.79
2023-03-16T21:13:56.300Z,58.72
2023-03-16T21:18:01.084Z,60.16
2023-03-16T21:22:18.958Z,58.35
2023-03-16T21:26:23.750Z,57.59
2023-03-16T21:30:30.002Z,56.69
2023-03-16T21:34:36.311Z,55.81
2023-03-16T21:38:40.431Z,55.53
2023-03-16T21:42:43.059Z,56.12
2023-03-16T21:46:46.471Z,56.09
2023-03-16T21:50:51.310Z,55.85
2023-03-16T21:54:56.853Z,56.53
2023-03-16T21:58:59.758Z,57.54
2023-03-16T22:03:04.283Z,58.92
2023-03-16T22:07:12.130Z,59.51
2023-03-16T22:11:18.016Z,60.41
2023-03-16T22:15:20.879Z,60.88
2023-03-16T22:19:23.597Z,61.18
2023-03-16T22:23:32.065Z,59.59
2023-03-16T22:27:36.037Z,58.95
2023-03-16T22:31:39.659Z,57.68
2023-03-16T22:35:43.097Z,57.31
2023-03-16T22:39:45.839Z,57.42
2023-03-16T22:43:50.226Z,57.16
2023-03-16T22:47:53.477Z,56.99
2023-03-16T22:51:58.369Z,56.34
2023-03-16T22:56:01.385Z,57.02
2023-03-16T23:00:11.160Z,57.12
2023-03-16T23:04:15.895Z,56.75
2023-03-16T23:08:21.600Z,56.35
2023-03-16T23:12:24.286Z,56.15
2023-03-16T23:16:30.608Z,56.63
2023-03-16T23:20:33.679Z,55.89
2023-03-16T23:24:36.640Z,56.26
2023-03-16T23:28:39.282Z,55.88
2023-03-16T23:32:43.645Z,56.39
2023-03-16T23:36:46.586Z,56.82
2023-03-16T23:40:49.717Z,56.93
2023-03-16T23:44:52.465Z,56.58
2023-03-16T23:48:59.034Z,56.73
2023-03-16T23:53:02.041Z,56.87
2023-03-16T23:57:04.957Z,57.13
